Terminal Aerodrome Forecast
Issued by NWS

Home | Current Version | Previous Version | Text Only | Print | Product List | Glossary On
Versions: 1 2 3 4 5 6 7 8 9 10 11 12 13 14 15 16 17 18 19 20 21 22 23 24 25 26 27 28
000
FTUS43 KAPX 281500 AAA
TAFPLN
TAF AMD
KPLN 281532Z 2816/2912 03015KT P6SM OVC035
     FM281900 33012KT P6SM BKN045
     FM290100 30006KT P6SM BKN040
     FM290600 30004KT P6SM SCT015 BKN035=

USA.gov is the U.S. government's official web portal to all federal, state and local government web resources and services.